Time;durP1;ratioP1;P1;durP2;ratioP2;P2;SDS_P1;SDS_P2;PMS_P1;PMS_P2;Temp;Humidity;BMP_temperature;BMP_pressure;BME280_temperature;BME280_humidity;BME280_pressure;Samples;Min_cycle;Max_cycle;Signal;HPM_P1;HPM_P2
2023/12/24 00:01:14;;;;;;;26.30;16.80;;;6.60;99.90;;;;;;4954647;29;20020;-75
2023/12/24 00:03:40;;;;;;;28.75;15.85;;;6.70;99.90;;;;;;4954310;29;20031;-74
2023/12/24 00:06:07;;;;;;;23.67;13.88;;;6.70;99.90;;;;;;4937490;29;20098;-74
2023/12/24 00:08:33;;;;;;;27.45;14.25;;;6.70;99.90;;;;;;4954039;28;20035;-74
2023/12/24 00:10:59;;;;;;;27.00;16.52;;;6.80;99.90;;;;;;4954700;28;20027;-74
2023/12/24 00:13:26;;;;;;;27.15;16.73;;;6.80;99.90;;;;;;4954273;28;20439;-74
2023/12/24 00:15:52;;;;;;;25.85;15.57;;;6.90;99.90;;;;;;4954552;28;20029;-76
2023/12/24 00:18:19;;;;;;;27.08;15.35;;;6.90;99.90;;;;;;4954011;29;20071;-74
2023/12/24 00:20:45;;;;;;;26.55;15.95;;;7.00;99.90;;;;;;4954417;29;20035;-74
2023/12/24 00:23:11;;;;;;;25.73;14.93;;;7.00;99.90;;;;;;4954272;28;20027;-75
2023/12/24 00:25:38;;;;;;;23.63;14.23;;;7.00;99.90;;;;;;4954527;28;20031;-74
2023/12/24 00:28:05;;;;;;;26.63;14.55;;;7.00;99.90;;;;;;4954052;28;20038;-75
2023/12/24 00:30:31;;;;;;;24.75;15.13;;;7.10;99.90;;;;;;4954143;29;20487;-74
2023/12/24 00:32:59;;;;;;;33.63;20.33;;;7.00;99.90;;;;;;4954206;29;20161;-74
2023/12/24 00:35:26;;;;;;;31.65;18.67;;;7.00;99.90;;;;;;4933519;29;20064;-75
2023/12/24 00:37:56;;;;;;;24.05;15.90;;;7.00;99.90;;;;;;4934962;29;20035;-74
2023/12/24 00:40:22;;;;;;;27.02;15.80;;;7.00;99.90;;;;;;4933572;29;20036;-74
2023/12/24 00:42:49;;;;;;;26.08;16.17;;;7.10;99.90;;;;;;4922292;29;20495;-74
2023/12/24 00:45:15;;;;;;;26.42;15.55;;;7.10;99.90;;;;;;4935038;29;20040;-74
2023/12/24 00:47:41;;;;;;;28.40;17.60;;;7.10;99.90;;;;;;4933598;29;20030;-75
2023/12/24 00:50:09;;;;;;;28.35;16.58;;;7.10;99.90;;;;;;4934957;29;20180;-74
2023/12/24 00:52:36;;;;;;;23.67;13.82;;;7.10;99.90;;;;;;4934840;29;20104;-74
2023/12/24 00:55:03;;;;;;;24.83;14.27;;;7.10;99.90;;;;;;4934922;29;20028;-75
2023/12/24 00:57:29;;;;;;;25.90;14.85;;;7.10;99.90;;;;;;4934787;29;20420;-74
2023/12/24 00:59:55;;;;;;;25.65;13.70;;;7.20;99.90;;;;;;4933693;29;20086;-74
2023/12/24 01:02:21;;;;;;;25.05;15.00;;;7.10;99.90;;;;;;4934622;29;20059;-74
2023/12/24 01:04:46;;;;;;;20.20;13.68;;;7.20;99.90;;;;;;4940971;29;20492;-74
2023/12/24 01:07:12;;;;;;;23.55;12.85;;;7.20;99.90;;;;;;4941114;29;20034;-74
2023/12/24 01:09:39;;;;;;;24.88;13.50;;;7.20;99.90;;;;;;4940847;29;20399;-75
2023/12/24 01:12:06;;;;;;;23.13;13.60;;;7.10;99.90;;;;;;4941182;29;20070;-74
2023/12/24 01:14:32;;;;;;;20.30;12.32;;;7.10;99.90;;;;;;4940798;29;20042;-74
2023/12/24 01:16:59;;;;;;;21.95;12.70;;;7.10;99.90;;;;;;4940968;29;20107;-74
2023/12/24 01:19:26;;;;;;;21.80;13.30;;;7.10;99.90;;;;;;4940643;29;20032;-74
2023/12/24 01:21:55;;;;;;;21.40;13.30;;;7.10;99.90;;;;;;4939777;29;20047;-74
2023/12/24 01:24:21;;;;;;;23.65;14.38;;;7.10;99.90;;;;;;4940867;29;20024;-75
2023/12/24 01:26:48;;;;;;;23.75;14.52;;;7.10;99.90;;;;;;4939636;29;20118;-74
2023/12/24 01:29:14;;;;;;;31.45;19.17;;;7.10;99.90;;;;;;4940991;29;20047;-74
2023/12/24 01:31:40;;;;;;;35.70;27.38;;;7.10;99.90;;;;;;4939330;29;20369;-74
2023/12/24 01:34:06;;;;;;;60.45;34.67;;;7.10;99.90;;;;;;4940532;29;20166;-74
2023/12/24 01:36:32;;;;;;;57.85;32.80;;;7.00;99.90;;;;;;4954913;29;20093;-74
2023/12/24 01:38:59;;;;;;;47.72;27.48;;;7.00;99.90;;;;;;4942588;28;20039;-74
2023/12/24 01:41:25;;;;;;;44.38;24.67;;;7.10;99.90;;;;;;4942837;29;20035;-74
2023/12/24 01:43:52;;;;;;;36.00;22.77;;;7.10;99.90;;;;;;4959846;28;20114;-74
2023/12/24 01:46:24;;;;;;;38.58;22.75;;;7.10;99.90;;;;;;4959855;28;20026;-75
2023/12/24 01:48:51;;;;;;;33.43;20.17;;;7.10;99.90;;;;;;4942238;28;20031;-75
2023/12/24 01:51:18;;;;;;;29.25;17.65;;;7.10;99.90;;;;;;4960096;28;20051;-74
2023/12/24 01:53:46;;;;;;;35.90;22.83;;;7.10;99.90;;;;;;4959693;29;20087;-74
2023/12/24 01:56:14;;;;;;;30.95;17.90;;;7.10;99.90;;;;;;4960081;28;20053;-74
2023/12/24 01:58:40;;;;;;;36.63;25.70;;;7.10;99.90;;;;;;4942549;29;20027;-74
2023/12/24 02:01:06;;;;;;;65.78;42.55;;;7.10;99.90;;;;;;4942399;29;20479;-75
2023/12/24 02:03:32;;;;;;;29.48;17.63;;;7.20;99.90;;;;;;4941950;29;20083;-74
2023/12/24 02:11:21;;;;;;;59.83;35.92;;;7.10;99.90;;;;;;4957204;23;20526;-72
2023/12/24 02:13:47;;;;;;;32.05;19.02;;;7.20;99.90;;;;;;4921240;29;20038;-72
2023/12/24 02:16:18;;;;;;;37.08;21.52;;;7.20;99.90;;;;;;4923663;29;20024;-75
2023/12/24 02:18:44;;;;;;;43.65;24.50;;;7.20;99.90;;;;;;4903014;29;20047;-75
2023/12/24 02:21:10;;;;;;;39.15;24.25;;;7.20;99.90;;;;;;4922188;29;20024;-74
2023/12/24 02:23:36;;;;;;;57.72;34.78;;;7.20;99.90;;;;;;4927433;29;20380;-74
2023/12/24 02:26:10;;;;;;;32.03;18.20;;;7.30;99.90;;;;;;4933674;28;20436;-74
2023/12/24 02:28:44;;;;;;;27.95;17.50;;;7.30;99.90;;;;;;4920038;29;20511;-74
2023/12/24 02:31:13;;;;;;;28.40;17.15;;;7.30;99.90;;;;;;4926965;28;20114;-74
2023/12/24 02:33:41;;;;;;;32.13;17.83;;;7.40;99.90;;;;;;4907658;29;20032;-72
2023/12/24 02:36:12;;;;;;;31.60;18.67;;;7.40;99.90;;;;;;4919354;29;20044;-72
2023/12/24 02:38:38;;;;;;;29.55;17.40;;;7.40;99.90;;;;;;4919674;29;20099;-72
2023/12/24 02:41:04;;;;;;;43.83;25.67;;;7.40;99.90;;;;;;4936391;29;20031;-73
2023/12/24 02:43:34;;;;;;;42.08;25.05;;;7.50;99.90;;;;;;4926985;29;20020;-72
2023/12/24 02:46:01;;;;;;;40.60;22.45;;;7.50;99.90;;;;;;4936046;29;20417;-73
2023/12/24 02:48:27;;;;;;;30.08;18.85;;;7.40;99.90;;;;;;4923210;29;20507;-73
2023/12/24 02:50:53;;;;;;;30.95;18.50;;;7.30;99.90;;;;;;4933325;29;20024;-73
2023/12/24 02:53:19;;;;;;;30.50;19.10;;;7.20;99.90;;;;;;4923430;28;20500;-72
2023/12/24 02:55:45;;;;;;;28.05;18.52;;;7.20;99.90;;;;;;4924414;29;20107;-75
2023/12/24 02:58:12;;;;;;;26.83;16.40;;;7.20;99.90;;;;;;4919235;29;20024;-73
2023/12/24 03:00:38;;;;;;;26.92;17.05;;;7.20;99.90;;;;;;4907062;28;20040;-73
2023/12/24 03:03:04;;;;;;;30.48;19.63;;;7.20;99.90;;;;;;4915780;29;20020;-73
2023/12/24 03:05:31;;;;;;;33.85;20.45;;;7.20;99.90;;;;;;4911858;29;20480;-72
2023/12/24 03:07:57;;;;;;;32.05;19.10;;;7.20;99.90;;;;;;4925882;29;20038;-73
2023/12/24 03:10:23;;;;;;;31.77;18.92;;;7.20;99.90;;;;;;4914046;29;20048;-73
2023/12/24 03:12:49;;;;;;;29.60;17.42;;;7.20;99.90;;;;;;4886657;29;20094;-73
2023/12/24 03:15:15;;;;;;;31.40;18.85;;;7.30;99.90;;;;;;4913789;29;20182;-73
2023/12/24 03:17:41;;;;;;;34.92;21.45;;;7.30;99.90;;;;;;4913722;29;20457;-72
2023/12/24 03:20:08;;;;;;;31.65;20.98;;;7.30;99.90;;;;;;4911653;29;20035;-73
2023/12/24 03:22:34;;;;;;;33.20;19.65;;;7.30;99.90;;;;;;4901104;29;20118;-73
2023/12/24 03:25:00;;;;;;;34.30;20.40;;;7.40;99.90;;;;;;4910993;29;20024;-73
2023/12/24 03:27:26;;;;;;;39.75;24.00;;;7.40;99.90;;;;;;4898962;29;20048;-73
2023/12/24 03:29:53;;;;;;;24.30;14.80;;;7.40;99.90;;;;;;4899501;29;20536;-73
2023/12/24 03:32:18;;;;;;;22.08;12.70;;;7.40;99.90;;;;;;4914676;29;20098;-73
2023/12/24 03:34:44;;;;;;;28.92;14.43;;;7.40;99.90;;;;;;4905775;29;20036;-73
2023/12/24 03:37:10;;;;;;;25.60;14.95;;;7.40;99.90;;;;;;4908736;29;20465;-72
2023/12/24 03:39:36;;;;;;;25.48;14.00;;;7.40;99.90;;;;;;4910838;29;20055;-73
2023/12/24 03:42:02;;;;;;;22.90;12.57;;;7.50;99.90;;;;;;4899092;29;20025;-73
2023/12/24 03:44:28;;;;;;;21.00;12.10;;;7.40;99.90;;;;;;4910868;29;20055;-73
2023/12/24 03:46:54;;;;;;;26.38;13.40;;;7.40;99.90;;;;;;4900429;29;20024;-73
2023/12/24 03:49:20;;;;;;;21.77;13.20;;;7.50;99.90;;;;;;4901268;29;20032;-72
2023/12/24 03:51:47;;;;;;;25.13;12.88;;;7.50;99.90;;;;;;4911783;29;20051;-73
2023/12/24 03:54:13;;;;;;;21.48;12.13;;;7.50;99.90;;;;;;4908706;29;20039;-73
2023/12/24 03:56:41;;;;;;;21.67;12.18;;;7.50;99.90;;;;;;4905187;29;20370;-73
2023/12/24 03:59:06;;;;;;;19.48;10.38;;;7.40;99.90;;;;;;4903224;29;20028;-73
2023/12/24 04:01:32;;;;;;;17.50;9.43;;;7.40;99.90;;;;;;4914554;29;20108;-72
2023/12/24 04:03:58;;;;;;;18.70;10.35;;;7.40;99.90;;;;;;4915401;29;20032;-72
2023/12/24 04:06:24;;;;;;;16.50;8.40;;;7.40;99.90;;;;;;4898127;29;20036;-73
2023/12/24 04:08:50;;;;;;;15.15;8.75;;;7.40;99.90;;;;;;4910608;29;20084;-73
2023/12/24 04:11:17;;;;;;;13.75;7.72;;;7.40;99.90;;;;;;4915747;29;20079;-74
2023/12/24 04:13:45;;;;;;;18.20;10.38;;;7.40;99.90;;;;;;4910106;29;20087;-73
2023/12/24 04:16:11;;;;;;;14.43;7.40;;;7.40;99.90;;;;;;4910537;29;20487;-73
2023/12/24 04:18:37;;;;;;;21.85;12.45;;;7.30;99.90;;;;;;4913690;29;20029;-72
2023/12/24 04:21:03;;;;;;;17.30;9.73;;;7.30;99.90;;;;;;4917259;29;20111;-73
2023/12/24 04:23:29;;;;;;;16.58;8.77;;;7.30;99.90;;;;;;4910276;29;20037;-73
2023/12/24 04:25:55;;;;;;;17.88;9.85;;;7.30;99.90;;;;;;4912844;29;20029;-73
2023/12/24 04:28:24;;;;;;;14.23;6.70;;;7.30;99.90;;;;;;4899610;29;20049;-73
2023/12/24 04:30:50;;;;;;;15.88;8.23;;;7.30;99.90;;;;;;4915015;29;20037;-74
2023/12/24 04:33:16;;;;;;;17.15;8.45;;;7.30;99.90;;;;;;4910200;29;20037;-72
2023/12/24 04:35:44;;;;;;;17.95;9.43;;;7.30;99.90;;;;;;4915267;29;20043;-73
2023/12/24 04:38:11;;;;;;;14.00;7.80;;;7.30;99.90;;;;;;4914277;29;20032;-73
2023/12/24 04:40:37;;;;;;;21.25;10.55;;;7.40;99.90;;;;;;4896872;29;20031;-72
2023/12/24 04:43:04;;;;;;;21.55;10.70;;;7.40;99.90;;;;;;4904562;29;20032;-73
2023/12/24 04:45:30;;;;;;;21.98;9.90;;;7.40;99.90;;;;;;4904296;29;20078;-73
2023/12/24 04:47:58;;;;;;;17.13;8.93;;;7.50;99.90;;;;;;4912645;29;20820;-74
2023/12/24 04:50:25;;;;;;;13.13;7.25;;;7.50;99.90;;;;;;4896949;29;20037;-73
2023/12/24 04:52:51;;;;;;;13.95;5.60;;;7.50;99.90;;;;;;4910246;29;20024;-73
2023/12/24 04:55:19;;;;;;;12.50;6.35;;;7.50;99.90;;;;;;4908540;29;20063;-73
2023/12/24 04:57:45;;;;;;;13.80;6.55;;;7.40;99.90;;;;;;4912634;29;20028;-73
2023/12/24 05:00:11;;;;;;;13.88;7.53;;;7.40;99.90;;;;;;4901863;29;20031;-73
2023/12/24 05:02:37;;;;;;;18.85;7.75;;;7.40;99.90;;;;;;4910961;29;20035;-72
2023/12/24 05:05:03;;;;;;;16.85;8.13;;;7.30;99.90;;;;;;4910407;29;20033;-73
2023/12/24 05:07:30;;;;;;;14.48;7.65;;;7.30;99.90;;;;;;4902600;29;20385;-73
2023/12/24 05:09:56;;;;;;;14.90;7.30;;;7.20;99.90;;;;;;4906241;29;20083;-73
2023/12/24 05:12:23;;;;;;;12.75;6.65;;;7.20;99.90;;;;;;4911811;29;20035;-72
2023/12/24 05:14:49;;;;;;;15.85;7.80;;;7.30;99.90;;;;;;4883443;29;20045;-73
2023/12/24 05:17:15;;;;;;;15.73;7.47;;;7.30;99.90;;;;;;4896177;29;20025;-74
2023/12/24 05:19:41;;;;;;;14.65;6.90;;;7.30;99.90;;;;;;4914954;29;20038;-73
2023/12/24 05:22:07;;;;;;;19.90;8.52;;;7.40;99.90;;;;;;4915507;29;20029;-75
2023/12/24 05:24:33;;;;;;;18.52;9.25;;;7.40;99.90;;;;;;4902492;29;20035;-74
2023/12/24 05:26:58;;;;;;;19.27;8.18;;;7.40;99.90;;;;;;4914953;29;20020;-74
2023/12/24 05:29:24;;;;;;;12.55;6.60;;;7.40;99.90;;;;;;4915460;29;20461;-75
2023/12/24 05:31:50;;;;;;;14.65;7.07;;;7.40;99.90;;;;;;4925867;29;20098;-73
2023/12/24 05:34:16;;;;;;;14.93;7.45;;;7.40;99.90;;;;;;4915139;29;20040;-74
2023/12/24 05:36:42;;;;;;;13.50;7.75;;;7.50;99.90;;;;;;4915733;29;20596;-74
2023/12/24 05:39:11;;;;;;;14.38;7.10;;;7.50;99.90;;;;;;4915041;29;20088;-74
2023/12/24 05:41:37;;;;;;;14.23;7.38;;;7.50;99.90;;;;;;4915624;29;20040;-75
2023/12/24 05:44:03;;;;;;;13.10;7.07;;;7.50;99.90;;;;;;4914115;29;20024;-75
2023/12/24 05:46:29;;;;;;;16.60;7.63;;;7.60;99.90;;;;;;4915122;29;20103;-74
2023/12/24 05:48:55;;;;;;;14.98;7.40;;;7.60;99.90;;;;;;4914109;29;20111;-74
2023/12/24 05:51:21;;;;;;;18.60;9.18;;;7.60;99.90;;;;;;4919090;29;20032;-74
2023/12/24 05:53:47;;;;;;;21.10;9.82;;;7.60;99.90;;;;;;4918903;29;20482;-75
2023/12/24 05:56:12;;;;;;;19.75;10.10;;;7.70;99.90;;;;;;4918476;29;20464;-74
2023/12/24 05:58:38;;;;;;;19.45;10.40;;;7.70;99.90;;;;;;4918832;29;20514;-75
2023/12/24 06:01:04;;;;;;;18.83;9.95;;;7.70;99.90;;;;;;4918441;29;20032;-75
2023/12/24 06:03:30;;;;;;;17.83;8.77;;;7.70;99.90;;;;;;4918872;29;20028;-74
2023/12/24 06:05:56;;;;;;;24.23;11.65;;;7.70;99.90;;;;;;4918951;29;20183;-74
2023/12/24 06:08:23;;;;;;;19.40;11.68;;;7.70;99.90;;;;;;4918253;29;20032;-74
2023/12/24 06:10:49;;;;;;;23.63;11.60;;;7.60;99.90;;;;;;4918195;29;20063;-75
2023/12/24 06:13:15;;;;;;;22.50;10.80;;;7.50;99.90;;;;;;4918674;29;20020;-75
2023/12/24 06:15:41;;;;;;;18.98;9.90;;;7.60;99.90;;;;;;4918523;29;20389;-74
2023/12/24 06:18:07;;;;;;;20.00;9.57;;;7.60;99.90;;;;;;4918241;29;20032;-75
2023/12/24 06:20:34;;;;;;;16.88;9.35;;;7.60;99.90;;;;;;4925992;29;20039;-74
2023/12/24 06:23:00;;;;;;;21.00;10.25;;;7.60;99.90;;;;;;4918147;29;20021;-74
2023/12/24 06:25:26;;;;;;;16.27;9.43;;;7.60;99.90;;;;;;4918654;29;20411;-74
2023/12/24 06:27:52;;;;;;;22.60;10.68;;;7.60;99.90;;;;;;4913800;29;20020;-74
2023/12/24 06:30:19;;;;;;;24.52;13.35;;;7.60;99.90;;;;;;4916871;29;20059;-74
2023/12/24 06:32:46;;;;;;;21.80;9.85;;;7.60;99.90;;;;;;4918173;29;20063;-74
2023/12/24 06:35:13;;;;;;;18.92;8.77;;;7.50;99.90;;;;;;4901269;29;20036;-74
2023/12/24 06:37:39;;;;;;;19.35;10.25;;;7.50;99.90;;;;;;4916606;29;20020;-74
2023/12/24 06:40:05;;;;;;;19.70;11.43;;;7.40;99.90;;;;;;4917800;29;20086;-74
2023/12/24 06:42:31;;;;;;;35.85;18.80;;;7.40;99.90;;;;;;4917744;29;20090;-75
2023/12/24 06:44:57;;;;;;;30.25;17.80;;;7.40;99.90;;;;;;4916137;29;20063;-75
2023/12/24 06:47:23;;;;;;;29.40;19.23;;;7.40;99.90;;;;;;4917697;29;20039;-74
2023/12/24 06:49:49;;;;;;;33.65;18.42;;;7.50;99.90;;;;;;4917456;29;20111;-75
2023/12/24 06:52:15;;;;;;;24.70;13.95;;;7.50;99.90;;;;;;4917821;29;20024;-74
2023/12/24 06:54:41;;;;;;;23.33;13.90;;;7.60;99.90;;;;;;4917798;29;20027;-75
2023/12/24 06:57:08;;;;;;;29.00;13.27;;;7.70;99.90;;;;;;4917756;29;20040;-74
2023/12/24 06:59:34;;;;;;;20.77;11.07;;;7.80;99.90;;;;;;4917653;29;20103;-74
2023/12/24 07:02:01;;;;;;;25.73;13.02;;;8.00;99.90;;;;;;4916966;29;20035;-74
2023/12/24 07:04:26;;;;;;;24.05;13.82;;;8.10;99.90;;;;;;4917668;29;20028;-74
2023/12/24 07:06:53;;;;;;;22.52;14.15;;;8.20;99.90;;;;;;4916527;29;20473;-75
2023/12/24 07:09:19;;;;;;;28.70;17.67;;;8.20;99.90;;;;;;4917526;29;20439;-74
2023/12/24 07:11:44;;;;;;;26.63;14.50;;;8.30;99.90;;;;;;4896773;29;20134;-75
2023/12/24 07:14:10;;;;;;;34.92;17.30;;;8.40;99.90;;;;;;4885687;29;20025;-74
2023/12/24 07:16:36;;;;;;;34.85;20.05;;;8.40;99.90;;;;;;4889467;29;20127;-75
2023/12/24 07:19:07;;;;;;;19.50;10.68;;;8.30;99.90;;;;;;4889342;29;20033;-75
2023/12/24 07:21:33;;;;;;;21.90;11.63;;;8.20;99.90;;;;;;4893998;29;20089;-74
2023/12/24 07:23:59;;;;;;;21.95;12.48;;;8.20;99.90;;;;;;4898615;29;20123;-74
2023/12/24 07:26:25;;;;;;;18.42;11.35;;;8.10;99.90;;;;;;4898136;29;20029;-74
2023/12/24 07:28:52;;;;;;;23.50;15.93;;;8.20;99.90;;;;;;4898531;29;20033;-75
2023/12/24 07:31:18;;;;;;;24.00;15.57;;;8.10;99.90;;;;;;4881578;29;20033;-74
2023/12/24 07:33:44;;;;;;;25.80;17.30;;;8.10;99.90;;;;;;4897833;29;20433;-74
2023/12/24 07:36:10;;;;;;;28.80;15.63;;;8.10;99.90;;;;;;4881739;29;20040;-74
2023/12/24 07:38:37;;;;;;;30.95;18.27;;;8.20;99.90;;;;;;4898023;29;20120;-74
2023/12/24 07:41:03;;;;;;;23.73;14.07;;;8.20;99.90;;;;;;4900033;29;20033;-74
2023/12/24 07:43:29;;;;;;;22.30;12.20;;;8.10;99.90;;;;;;4916995;29;20032;-74
2023/12/24 07:45:56;;;;;;;24.45;12.52;;;8.10;99.90;;;;;;4916701;29;20024;-74
2023/12/24 07:48:24;;;;;;;19.05;10.23;;;8.10;99.90;;;;;;4916279;29;20051;-74
2023/12/24 07:50:50;;;;;;;16.75;9.55;;;8.00;99.90;;;;;;4916883;29;20044;-74
2023/12/24 07:53:16;;;;;;;20.75;11.82;;;8.10;99.90;;;;;;4916418;29;20028;-74
2023/12/24 07:55:42;;;;;;;20.63;12.07;;;8.30;99.90;;;;;;4897389;29;20388;-75
2023/12/24 07:58:08;;;;;;;21.95;10.90;;;8.50;99.90;;;;;;4921467;29;20071;-75
2023/12/24 08:00:34;;;;;;;17.77;10.13;;;8.70;99.90;;;;;;4913375;29;20067;-75
2023/12/24 08:03:01;;;;;;;14.85;7.38;;;8.90;99.90;;;;;;4912385;29;20043;-75
2023/12/24 08:05:27;;;;;;;18.25;10.00;;;9.10;99.90;;;;;;4905937;29;20067;-75
2023/12/24 08:07:53;;;;;;;17.05;9.63;;;9.30;99.90;;;;;;4906731;29;20035;-74
2023/12/24 08:10:19;;;;;;;23.88;13.45;;;9.40;99.90;;;;;;4917687;29;20052;-75
2023/12/24 08:12:45;;;;;;;26.15;16.05;;;9.50;99.90;;;;;;4930940;29;20067;-75
2023/12/24 08:15:11;;;;;;;26.48;15.55;;;9.60;99.90;;;;;;4933603;29;20110;-75
2023/12/24 08:17:43;;;;;;;26.17;15.18;;;9.60;99.90;;;;;;4934182;29;20032;-75
2023/12/24 08:20:09;;;;;;;28.23;16.02;;;9.70;99.90;;;;;;4934685;29;20098;-74
2023/12/24 08:22:37;;;;;;;34.90;19.38;;;9.80;99.90;;;;;;4935412;29;20420;-75
2023/12/24 08:25:04;;;;;;;34.22;21.08;;;9.90;99.90;;;;;;4935395;29;20115;-75
2023/12/24 08:27:30;;;;;;;26.70;16.88;;;9.90;99.90;;;;;;4929101;29;20036;-74
2023/12/24 08:29:56;;;;;;;29.30;16.35;;;9.90;99.90;;;;;;4931275;29;20032;-74
2023/12/24 08:32:21;;;;;;;29.30;17.25;;;9.90;99.90;;;;;;4934987;29;20035;-75
2023/12/24 08:34:48;;;;;;;24.33;13.50;;;9.90;99.90;;;;;;4935256;29;20031;-76
2023/12/24 08:37:14;;;;;;;26.33;15.50;;;9.90;99.90;;;;;;4935218;29;20028;-75
2023/12/24 08:39:40;;;;;;;28.42;16.98;;;9.90;99.90;;;;;;4935005;29;20044;-74
2023/12/24 08:42:06;;;;;;;28.83;17.75;;;10.00;99.90;;;;;;4934504;29;20048;-74
2023/12/24 08:44:32;;;;;;;40.30;25.25;;;10.00;99.90;;;;;;4935120;29;20549;-75
2023/12/24 08:46:58;;;;;;;32.40;19.08;;;10.00;99.90;;;;;;4934724;29;20023;-74
2023/12/24 08:49:24;;;;;;;29.67;17.60;;;9.80;99.90;;;;;;4934672;29;20389;-74
2023/12/24 08:51:50;;;;;;;35.60;22.25;;;9.90;99.90;;;;;;4934811;29;20027;-75
2023/12/24 08:54:16;;;;;;;43.42;26.33;;;9.90;99.90;;;;;;4934532;29;20063;-75
2023/12/24 08:56:42;;;;;;;54.30;28.50;;;10.00;99.90;;;;;;4934929;29;20034;-75
2023/12/24 08:59:08;;;;;;;54.88;35.30;;;10.10;99.90;;;;;;4934628;29;20489;-75
2023/12/24 09:01:34;;;;;;;55.67;33.13;;;10.10;99.90;;;;;;4935018;29;20032;-74
2023/12/24 09:04:00;;;;;;;60.70;38.90;;;10.10;99.90;;;;;;4934180;29;20034;-74
2023/12/24 09:06:26;;;;;;;63.55;41.55;;;10.20;99.90;;;;;;4938131;28;20030;-75
2023/12/24 09:08:52;;;;;;;67.70;43.85;;;10.20;99.90;;;;;;4943406;29;20031;-74
2023/12/24 09:11:18;;;;;;;58.15;39.45;;;10.30;99.90;;;;;;4934430;29;20056;-75
2023/12/24 09:13:44;;;;;;;60.05;40.17;;;10.30;99.90;;;;;;4934126;29;20031;-75
2023/12/24 09:16:10;;;;;;;52.00;33.53;;;10.40;99.90;;;;;;4934855;29;20043;-75
2023/12/24 09:18:36;;;;;;;46.15;31.02;;;10.40;99.90;;;;;;4934382;29;20040;-74
2023/12/24 09:21:02;;;;;;;46.30;31.45;;;10.40;99.90;;;;;;4934227;29;20027;-74
2023/12/24 09:23:28;;;;;;;45.45;30.70;;;10.40;99.90;;;;;;4935192;29;20043;-74
2023/12/24 09:25:54;;;;;;;44.13;28.90;;;10.40;99.90;;;;;;4938484;29;20028;-74
2023/12/24 09:28:19;;;;;;;60.20;32.22;;;10.40;99.90;;;;;;4938149;29;20019;-74
2023/12/24 09:30:45;;;;;;;46.97;32.20;;;10.30;99.90;;;;;;4938075;29;20028;-75
2023/12/24 09:33:12;;;;;;;49.35;34.65;;;10.40;99.90;;;;;;4938117;29;20123;-75
2023/12/24 09:35:37;;;;;;;56.40;36.97;;;10.40;99.90;;;;;;4937975;29;20523;-74
2023/12/24 09:38:03;;;;;;;46.90;30.92;;;10.40;99.90;;;;;;4924974;29;20034;-74
2023/12/24 09:40:29;;;;;;;40.85;27.15;;;10.50;99.90;;;;;;4933704;29;20399;-74
2023/12/24 09:42:55;;;;;;;40.63;26.73;;;10.60;99.90;;;;;;4937288;29;20031;-74
2023/12/24 09:45:21;;;;;;;41.88;29.40;;;10.60;99.90;;;;;;4937552;29;20028;-75
2023/12/24 09:47:47;;;;;;;39.60;29.00;;;10.60;99.90;;;;;;4938064;29;20023;-74
2023/12/24 09:50:15;;;;;;;48.25;32.20;;;10.70;99.90;;;;;;4935918;29;20576;-75
2023/12/24 09:52:41;;;;;;;51.17;33.35;;;10.80;99.90;;;;;;4932930;29;20028;-75
2023/12/24 09:55:07;;;;;;;58.28;39.35;;;10.80;99.90;;;;;;4938026;29;20039;-75
2023/12/24 09:57:33;;;;;;;60.80;39.10;;;10.90;99.90;;;;;;4937753;29;20055;-74
2023/12/24 09:59:59;;;;;;;65.68;43.40;;;10.90;99.90;;;;;;4937799;29;20502;-75
2023/12/24 10:02:25;;;;;;;68.75;44.92;;;11.00;99.90;;;;;;4943811;28;20110;-75
2023/12/24 10:04:51;;;;;;;49.10;34.15;;;10.90;99.90;;;;;;4938077;29;20024;-74
2023/12/24 10:07:18;;;;;;;53.20;35.58;;;11.00;99.90;;;;;;4937477;29;20028;-75
2023/12/24 10:09:50;;;;;;;53.20;38.03;;;11.10;99.90;;;;;;4937481;29;20146;-75
2023/12/24 10:12:17;;;;;;;57.83;37.80;;;11.10;99.70;;;;;;4937440;29;20053;-74
2023/12/24 10:14:55;;;;;;;51.10;35.25;;;11.10;99.80;;;;;;4937375;29;20036;-75
2023/12/24 10:17:32;;;;;;;53.60;36.42;;;11.20;99.80;;;;;;4936078;29;20106;-75
2023/12/24 10:20:00;;;;;;;57.13;38.10;;;11.40;99.50;;;;;;4937223;29;20131;-74
2023/12/24 10:22:26;;;;;;;60.00;40.63;;;11.30;99.80;;;;;;4937438;29;20055;-75
2023/12/24 10:25:06;;;;;;;63.72;41.30;;;11.30;99.90;;;;;;4937667;29;20027;-75
2023/12/24 10:27:32;;;;;;;58.35;42.30;;;11.20;99.90;;;;;;4936939;29;20024;-75
2023/12/24 10:30:08;;;;;;;60.97;42.85;;;11.20;99.90;;;;;;4936449;29;20067;-75
2023/12/24 10:32:34;;;;;;;57.03;41.60;;;11.20;99.90;;;;;;4937262;29;20059;-75
2023/12/24 10:35:00;;;;;;;69.20;44.42;;;11.30;99.90;;;;;;4935852;29;20055;-75
2023/12/24 10:37:27;;;;;;;55.45;37.70;;;11.40;99.90;;;;;;4937328;29;20372;-76
2023/12/24 10:39:53;;;;;;;46.67;33.60;;;11.50;99.90;;;;;;4936509;29;20043;-75
2023/12/24 10:42:20;;;;;;;38.30;25.70;;;11.40;99.50;;;;;;4936876;29;20110;-74
2023/12/24 10:44:46;;;;;;;35.22;24.08;;;11.50;99.90;;;;;;4936800;29;20448;-75
2023/12/24 10:47:12;;;;;;;33.42;22.10;;;11.50;99.90;;;;;;4937159;29;20110;-75
2023/12/24 10:49:38;;;;;;;54.72;33.83;;;11.50;99.90;;;;;;4919324;29;20035;-75
2023/12/24 10:52:05;;;;;;;40.70;26.40;;;11.30;99.90;;;;;;4937021;29;20083;-75
2023/12/24 10:54:32;;;;;;;35.78;24.10;;;11.40;99.90;;;;;;4936791;29;20032;-75
2023/12/24 10:57:09;;;;;;;42.45;27.08;;;11.40;99.90;;;;;;4936718;29;20087;-75
2023/12/24 11:00:06;;;;;;;39.80;27.60;;;11.40;99.90;;;;;;4927255;28;20040;-76
2023/12/24 11:02:35;;;;;;;42.63;30.13;;;11.50;99.90;;;;;;4932136;29;20029;-74
2023/12/24 11:05:01;;;;;;;54.55;34.60;;;11.50;99.90;;;;;;4936101;29;20051;-74
2023/12/24 11:07:45;;;;;;;49.22;34.65;;;11.40;99.90;;;;;;4934751;29;20087;-74
2023/12/24 11:10:42;;;;;;;44.88;31.70;;;11.30;99.90;;;;;;4937259;29;20044;-75
2023/12/24 11:13:30;;;;;;;45.75;31.13;;;11.30;99.90;;;;;;4928030;29;20038;-75
2023/12/24 11:15:56;;;;;;;44.55;29.60;;;11.30;99.90;;;;;;4936418;29;20042;-74
2023/12/24 11:18:43;;;;;;;43.80;28.73;;;11.40;99.90;;;;;;4936397;29;20027;-74
2023/12/24 11:21:11;;;;;;;44.58;30.48;;;11.40;99.90;;;;;;4938062;29;20371;-75
2023/12/24 11:23:41;;;;;;;40.97;29.52;;;11.40;99.90;;;;;;4936201;29;20031;-75
2023/12/24 11:26:33;;;;;;;40.20;27.63;;;11.40;99.90;;;;;;4935575;29;20035;-75
2023/12/24 11:29:00;;;;;;;35.33;23.00;;;11.40;99.90;;;;;;4937251;29;20126;-74
2023/12/24 11:31:27;;;;;;;36.40;25.00;;;11.40;99.90;;;;;;4935395;29;20030;-74
2023/12/24 11:33:57;;;;;;;35.75;24.05;;;11.50;99.90;;;;;;4937850;29;20506;-74
2023/12/24 11:36:24;;;;;;;35.88;23.45;;;11.80;99.90;;;;;;4950535;28;20427;-75
2023/12/24 11:38:57;;;;;;;31.27;21.90;;;11.90;99.90;;;;;;4934287;29;20126;-74
2023/12/24 11:41:23;;;;;;;;;;;12.00;99.90;;;;;;4934993;29;20034;-73
2023/12/24 11:43:55;;;;;;;32.00;21.27;;;12.20;99.90;;;;;;4939304;29;19907;-74
2023/12/24 11:46:22;;;;;;;27.50;18.38;;;12.30;99.90;;;;;;4935620;29;20039;-74
2023/12/24 11:48:48;;;;;;;26.75;17.67;;;12.30;99.80;;;;;;4935622;29;20035;-74
2023/12/24 11:51:14;;;;;;;27.15;17.70;;;12.30;99.90;;;;;;4929713;29;20031;-74
2023/12/24 11:53:41;;;;;;;29.08;17.35;;;12.30;99.90;;;;;;4920257;29;20155;-73
2023/12/24 11:56:15;;;;;;;24.23;16.42;;;12.30;99.90;;;;;;4943694;28;20031;-73
2023/12/24 11:58:50;;;;;;;28.95;17.80;;;12.50;99.90;;;;;;4935046;29;20036;-73
2023/12/24 12:01:36;;;;;;;27.67;18.50;;;12.60;99.70;;;;;;4925250;29;20489;-74
2023/12/24 12:04:04;;;;;;;30.50;18.75;;;12.60;99.90;;;;;;4928156;29;20039;-74
2023/12/24 12:06:32;;;;;;;28.58;19.48;;;12.50;99.80;;;;;;4935297;29;20028;-74
2023/12/24 12:09:00;;;;;;;30.30;19.92;;;12.50;99.90;;;;;;4935573;29;20372;-74
2023/12/24 12:11:26;;;;;;;27.80;19.10;;;12.50;99.90;;;;;;4935380;29;20551;-74
2023/12/24 12:13:52;;;;;;;31.63;18.48;;;12.60;99.90;;;;;;4935548;29;20110;-74
2023/12/24 12:16:19;;;;;;;25.90;17.85;;;12.60;99.90;;;;;;4918248;29;20110;-74
2023/12/24 12:18:45;;;;;;;27.90;17.90;;;12.60;99.90;;;;;;4935443;29;20042;-74
2023/12/24 12:21:11;;;;;;;27.92;17.48;;;12.70;99.90;;;;;;4935158;29;20020;-74
2023/12/24 12:23:38;;;;;;;24.25;16.42;;;12.70;99.90;;;;;;4935429;29;20024;-74
2023/12/24 12:26:05;;;;;;;30.45;18.55;;;12.80;99.90;;;;;;4918204;29;20023;-74
2023/12/24 12:28:31;;;;;;;31.77;17.60;;;12.90;99.90;;;;;;4918017;29;20126;-75
2023/12/24 12:30:57;;;;;;;27.05;17.83;;;13.10;99.90;;;;;;4935198;29;20027;-74
2023/12/24 12:33:23;;;;;;;30.65;19.65;;;13.20;99.90;;;;;;4935316;29;20036;-74
2023/12/24 12:35:49;;;;;;;35.63;22.35;;;13.30;99.90;;;;;;4935112;29;20028;-74
2023/12/24 12:38:15;;;;;;;35.88;22.88;;;13.40;99.90;;;;;;4935047;29;20036;-74
2023/12/24 12:40:41;;;;;;;36.28;23.20;;;13.30;99.70;;;;;;4934876;29;20051;-74